Aviation Digital Data Service (ADDS)

Output produced by METARs form (1009 UTC 29 September 2016)
found at http://aviationweather.gov/adds/metars/
 
KPBG 290538Z 2906/3006 VRB03KT P6SM SCT040 SCT250 
     FM291400 05010KT P6SM SCT050 SCT250 
     FM300000 36007KT P6SM SCT150 BKN200